createdAt,value
2018-12-18T00:00:34.651Z,0
2018-12-18T00:01:44.731Z,0
2018-12-18T00:02:54.791Z,0
2018-12-18T00:04:04.865Z,0
2018-12-18T00:05:14.924Z,0
2018-12-18T00:06:24.768Z,0
2018-12-18T00:07:35.051Z,0
2018-12-18T00:08:45.250Z,0
2018-12-18T00:09:55.340Z,0
2018-12-18T00:11:05.653Z,0
2018-12-18T00:12:15.737Z,0
2018-12-18T00:13:25.572Z,0
2018-12-18T00:14:35.389Z,0
2018-12-18T00:15:47.184Z,0
2018-12-18T00:16:57.297Z,0
2018-12-18T00:18:09.977Z,0
2018-12-18T00:19:20.030Z,0
2018-12-18T00:20:30.088Z,0
2018-12-18T00:21:40.142Z,0
2018-12-18T00:22:50.254Z,0
2018-12-18T00:24:00.323Z,0
2018-12-18T00:25:10.134Z,0
2018-12-18T00:26:20.493Z,0
2018-12-18T00:27:30.663Z,0
2018-12-18T00:28:40.476Z,0
2018-12-18T00:29:50.551Z,0
2018-12-18T00:31:00.610Z,0
2018-12-18T00:32:10.681Z,0
2018-12-18T00:33:20.510Z,0
2018-12-18T00:34:30.613Z,0
2018-12-18T00:35:40.688Z,0
2018-12-18T00:36:50.747Z,0
2018-12-18T00:38:00.863Z,0
2018-12-18T00:39:11.198Z,0
2018-12-18T00:40:21.057Z,0
2018-12-18T00:41:31.118Z,0
2018-12-18T00:42:41.173Z,0
2018-12-18T00:43:51.234Z,0
2018-12-18T00:45:01.057Z,0
2018-12-18T00:46:11.183Z,0
2018-12-18T00:47:21.280Z,0
2018-12-18T00:48:31.357Z,0
2018-12-18T00:49:41.418Z,0
2018-12-18T00:50:50.965Z,0
2018-12-18T00:52:02.690Z,0
2018-12-18T00:53:12.244Z,0
2018-12-18T00:54:21.781Z,0
2018-12-18T00:55:32.064Z,0
2018-12-18T00:56:42.143Z,0
2018-12-18T00:57:52.257Z,0
2018-12-18T00:59:02.332Z,0
2018-12-18T01:00:12.144Z,0
2018-12-18T01:01:22.207Z,0
2018-12-18T01:02:32.292Z,0
2018-12-18T01:03:42.321Z,0
2018-12-18T01:04:52.394Z,0
2018-12-18T01:06:02.473Z,0
2018-12-18T01:07:12.752Z,0
2018-12-18T01:08:22.861Z,0
2018-12-18T01:09:47.648Z,0
2018-12-18T01:10:57.711Z,0
2018-12-18T01:12:07.762Z,0
2018-12-18T01:13:17.828Z,0
2018-12-18T01:14:27.915Z,0
2018-12-18T01:15:38.284Z,0
2018-12-18T01:16:48.130Z,0
2018-12-18T01:17:58.414Z,0
2018-12-18T01:19:08.705Z,0
2018-12-18T01:20:18.760Z,0
2018-12-18T01:21:28.822Z,0
2018-12-18T01:22:38.818Z,0
2018-12-18T01:23:48.881Z,0
2018-12-18T01:24:58.940Z,0
2018-12-18T01:26:09.013Z,0
2018-12-18T01:27:19.065Z,0
2018-12-18T01:28:29.088Z,0
2018-12-18T01:29:39.187Z,0
2018-12-18T01:30:49.012Z,0
2018-12-18T01:31:58.838Z,0
2018-12-18T01:33:09.552Z,0
2018-12-18T01:34:19.372Z,0
2018-12-18T01:35:29.457Z,0
2018-12-18T01:36:39.537Z,0
2018-12-18T01:37:49.609Z,0
2018-12-18T01:38:59.676Z,0
2018-12-18T01:40:10.645Z,0
2018-12-18T01:41:20.690Z,0
2018-12-18T01:42:30.523Z,0
2018-12-18T01:43:40.590Z,0
2018-12-18T01:44:50.655Z,0
2018-12-18T01:46:02.382Z,0
2018-12-18T01:47:12.177Z,0
2018-12-18T01:48:22.235Z,0
2018-12-18T01:49:32.368Z,0
2018-12-18T01:50:42.489Z,0
2018-12-18T01:51:52.550Z,0
2018-12-18T01:53:02.828Z,0
2018-12-18T01:54:12.897Z,0
2018-12-18T01:55:22.958Z,0
2018-12-18T01:56:33.062Z,0
2018-12-18T01:57:43.188Z,0
2018-12-18T01:58:53.307Z,0
2018-12-18T02:00:05.666Z,0
2018-12-18T02:01:15.474Z,0
2018-12-18T02:02:25.431Z,0
2018-12-18T02:03:35.474Z,0
2018-12-18T02:04:45.563Z,0
2018-12-18T02:05:55.392Z,0
2018-12-18T02:07:06.064Z,0
2018-12-18T02:08:15.870Z,0
2018-12-18T02:09:25.937Z,0
2018-12-18T02:10:36.002Z,0
2018-12-18T02:11:46.251Z,0
2018-12-18T02:12:56.046Z,0
2018-12-18T02:14:05.953Z,0
2018-12-18T02:15:16.011Z,0
2018-12-18T02:16:26.091Z,0
2018-12-18T02:17:36.144Z,0
2018-12-18T02:18:46.216Z,0
2018-12-18T02:19:56.328Z,0
2018-12-18T02:21:07.200Z,0
2018-12-18T02:22:16.745Z,0
2018-12-18T02:23:26.807Z,0
2018-12-18T02:24:36.878Z,0
2018-12-18T02:25:46.995Z,0
2018-12-18T02:26:56.529Z,0
2018-12-18T02:28:06.599Z,0
2018-12-18T02:29:16.682Z,0
2018-12-18T02:30:26.824Z,0
2018-12-18T02:31:36.881Z,0
2018-12-18T02:32:47.226Z,0
2018-12-18T02:33:57.279Z,0
2018-12-18T02:35:07.600Z,0
2018-12-18T02:36:17.693Z,0
2018-12-18T02:37:27.812Z,0
2018-12-18T02:38:37.931Z,0
2018-12-18T02:39:47.989Z,0
2018-12-18T02:40:58.054Z,0
2018-12-18T02:42:08.115Z,0
2018-12-18T02:43:18.182Z,0
2018-12-18T02:44:28.015Z,0
2018-12-18T02:45:38.320Z,0
2018-12-18T02:46:48.388Z,0
2018-12-18T02:47:58.447Z,0
2018-12-18T02:49:10.885Z,0
2018-12-18T02:50:21.015Z,0
2018-12-18T02:51:31.075Z,0
2018-12-18T02:52:40.889Z,0
2018-12-18T02:53:50.960Z,0
2018-12-18T02:55:01.410Z,0
2018-12-18T02:56:11.234Z,0
2018-12-18T02:57:21.303Z,0
2018-12-18T02:58:31.105Z,0
2018-12-18T02:59:41.173Z,0
2018-12-18T03:00:51.301Z,0
2018-12-18T03:02:01.108Z,0
2018-12-18T03:03:11.027Z,0
2018-12-18T03:34:51.130Z,0
2018-12-18T03:36:01.410Z,0
2018-12-18T03:37:11.510Z,0
2018-12-18T03:38:21.780Z,0
2018-12-18T03:39:31.840Z,0
2018-12-18T03:40:41.894Z,0
2018-12-18T03:41:51.959Z,0
2018-12-18T03:43:02.015Z,0
2018-12-18T03:44:12.091Z,0
2018-12-18T03:45:22.162Z,0
2018-12-18T03:46:32.006Z,0
2018-12-18T03:47:41.553Z,0
2018-12-18T03:48:51.840Z,0
2018-12-18T03:50:01.654Z,0
2018-12-18T03:51:11.486Z,0
2018-12-18T03:52:21.329Z,0
2018-12-18T03:53:31.384Z,0
2018-12-18T03:54:40.938Z,0
2018-12-18T03:55:50.753Z,0
2018-12-18T03:57:02.195Z,0
2018-12-18T03:58:12.364Z,0
2018-12-18T03:59:22.440Z,0
2018-12-18T04:00:32.507Z,0
2018-12-18T04:01:42.683Z,0
2018-12-18T04:02:52.727Z,0
2018-12-18T04:04:03.562Z,0
2018-12-18T04:05:13.842Z,0
2018-12-18T04:06:23.896Z,0
2018-12-18T04:07:34.236Z,0
2018-12-18T04:08:44.808Z,0
2018-12-18T04:09:54.850Z,0
2018-12-18T04:11:04.478Z,0
2018-12-18T04:12:14.563Z,0
2018-12-18T04:13:24.635Z,0
2018-12-18T04:14:34.717Z,0
2018-12-18T04:15:45.044Z,0
2018-12-18T04:16:55.111Z,0
2018-12-18T04:18:05.891Z,0
2018-12-18T04:19:15.967Z,0
2018-12-18T04:20:26.033Z,0
2018-12-18T04:21:36.510Z,0
2018-12-18T04:22:46.576Z,0
2018-12-18T04:23:57.071Z,0
2018-12-18T04:25:06.909Z,0
2018-12-18T04:26:16.731Z,0
2018-12-18T04:27:26.794Z,0
2018-12-18T04:28:36.658Z,0
2018-12-18T04:29:46.730Z,0
2018-12-18T04:30:56.814Z,0
2018-12-18T04:32:06.908Z,0
2018-12-18T04:33:17.018Z,0
2018-12-18T04:34:27.076Z,0
2018-12-18T04:35:37.163Z,0
2018-12-18T04:36:46.960Z,0
2018-12-18T04:37:56.967Z,0
2018-12-18T04:39:07.984Z,0
2018-12-18T04:40:18.074Z,0
2018-12-18T04:41:28.129Z,0
2018-12-18T04:42:38.193Z,0
2018-12-18T04:43:47.990Z,0
2018-12-18T04:44:58.074Z,0
2018-12-18T04:46:09.389Z,0
2018-12-18T04:47:19.454Z,0
2018-12-18T04:48:29.538Z,0
2018-12-18T04:49:39.363Z,0
2018-12-18T04:50:49.184Z,0
2018-12-18T04:51:59.254Z,0
2018-12-18T04:53:09.340Z,0
2018-12-18T04:54:19.424Z,0
2018-12-18T04:55:29.488Z,0
2018-12-18T04:56:39.555Z,0
2018-12-18T04:57:49.620Z,0
2018-12-18T04:58:59.672Z,0
2018-12-18T05:00:09.724Z,0
2018-12-18T05:01:19.580Z,0
2018-12-18T05:02:29.461Z,0
2018-12-18T05:03:39.588Z,0
2018-12-18T05:04:55.280Z,0
2018-12-18T05:06:05.104Z,0
2018-12-18T05:07:14.900Z,0
2018-12-18T05:08:25.103Z,0
2018-12-18T05:09:35.372Z,0
2018-12-18T05:10:45.423Z,0
2018-12-18T05:11:55.492Z,0
2018-12-18T05:13:05.537Z,0
2018-12-18T05:14:15.109Z,0
2018-12-18T05:15:25.164Z,0
2018-12-18T05:16:35.033Z,0
2018-12-18T05:17:44.580Z,0
2018-12-18T05:18:54.393Z,0
2018-12-18T05:20:04.441Z,0
2018-12-18T05:21:14.563Z,0
2018-12-18T05:22:24.651Z,0
2018-12-18T05:23:34.459Z,0
2018-12-18T05:24:44.263Z,0
2018-12-18T05:25:54.302Z,0
2018-12-18T05:27:05.053Z,0
2018-12-18T05:28:16.221Z,0
2018-12-18T05:29:26.442Z,0
2018-12-18T05:30:36.538Z,0
2018-12-18T05:31:46.441Z,0
2018-12-18T05:32:56.357Z,0
2018-12-18T05:34:08.060Z,0
2018-12-18T05:35:18.552Z,0
2018-12-18T05:36:28.500Z,0
2018-12-18T05:37:38.048Z,0
2018-12-18T05:38:48.112Z,0
2018-12-18T05:39:58.173Z,0
2018-12-18T05:41:08.285Z,0
2018-12-18T05:42:18.347Z,0
2018-12-18T05:43:28.618Z,0
2018-12-18T05:44:38.795Z,0
2018-12-18T05:45:48.866Z,0
2018-12-18T05:46:58.919Z,0
2018-12-18T05:48:08.967Z,0
2018-12-18T05:49:19.087Z,0
2018-12-18T05:50:29.362Z,0
2018-12-18T05:51:39.470Z,0
2018-12-18T05:52:49.584Z,0
2018-12-18T05:53:59.645Z,0
2018-12-18T05:55:10.206Z,0
2018-12-18T05:56:20.274Z,0
2018-12-18T05:57:30.316Z,0
2018-12-18T05:58:40.589Z,0
2018-12-18T05:59:50.638Z,0
2018-12-18T06:01:00.449Z,0
2018-12-18T06:02:10.498Z,0
2018-12-18T06:03:20.564Z,0
2018-12-18T06:04:30.630Z,0
2018-12-18T06:05:40.679Z,0
2018-12-18T06:06:50.738Z,0
2018-12-18T06:08:02.955Z,0
2018-12-18T06:09:13.011Z,0
2018-12-18T06:10:23.083Z,4
2018-12-18T06:11:33.139Z,4
2018-12-18T06:12:43.217Z,0
2018-12-18T06:13:53.819Z,0
2018-12-18T06:15:03.877Z,4
2018-12-18T06:16:13.938Z,4
2018-12-18T06:17:24.019Z,4
2018-12-18T06:18:34.089Z,8
2018-12-18T06:19:44.149Z,4
2018-12-18T06:20:54.436Z,4
2018-12-18T06:22:04.522Z,8
2018-12-18T06:23:14.604Z,12
2018-12-18T06:24:24.705Z,8
2018-12-18T06:25:34.277Z,12
2018-12-18T06:26:44.134Z,16
2018-12-18T06:27:53.941Z,16
2018-12-18T06:29:03.990Z,24
2018-12-18T06:30:14.707Z,24
2018-12-18T06:31:24.812Z,28
2018-12-18T06:32:34.901Z,36
2018-12-18T06:33:44.997Z,40
2018-12-18T06:34:55.070Z,44
2018-12-18T06:36:05.152Z,52
2018-12-18T06:37:14.973Z,56
2018-12-18T06:38:25.041Z,60
2018-12-18T06:39:35.101Z,64
2018-12-18T06:40:45.210Z,72
2018-12-18T06:41:54.771Z,72
2018-12-18T06:43:04.559Z,80
2018-12-18T06:44:14.625Z,84
2018-12-18T06:45:24.771Z,96
2018-12-18T06:46:35.123Z,100
2018-12-18T06:47:45.365Z,116
2018-12-18T06:48:55.481Z,124
2018-12-18T06:50:05.303Z,136
2018-12-18T06:51:15.349Z,148
2018-12-18T06:52:25.157Z,160
2018-12-18T06:53:35.250Z,176
2018-12-18T06:54:45.083Z,188
2018-12-18T06:55:55.138Z,204
2018-12-18T06:57:05.311Z,208
2018-12-18T06:58:15.380Z,212
2018-12-18T06:59:25.180Z,216
2018-12-18T07:00:35.535Z,224
2018-12-18T07:01:45.596Z,236
2018-12-18T07:02:55.671Z,252
2018-12-18T07:04:05.494Z,268
2018-12-18T07:05:21.649Z,284
2018-12-18T07:06:31.727Z,296
2018-12-18T07:07:41.777Z,304
2018-12-18T07:08:51.606Z,316
2018-12-18T07:10:01.657Z,324
2018-12-18T07:11:11.844Z,336
2018-12-18T07:12:21.905Z,348
2018-12-18T07:13:31.964Z,368
2018-12-18T07:14:41.761Z,404
2018-12-18T07:15:51.869Z,448
2018-12-18T07:17:01.751Z,492
2018-12-18T07:18:11.860Z,528
2018-12-18T07:19:21.945Z,552
2018-12-18T07:20:32.003Z,564
2018-12-18T07:21:41.818Z,568
2018-12-18T07:22:51.882Z,556
2018-12-18T07:24:01.991Z,560
2018-12-18T07:25:11.785Z,568
2018-12-18T07:26:21.873Z,592
2018-12-18T07:27:31.918Z,624
2018-12-18T07:28:41.741Z,660
2018-12-18T07:29:51.905Z,708
2018-12-18T07:31:02.125Z,752
2018-12-18T07:32:12.163Z,800
2018-12-18T07:33:22.257Z,840
2018-12-18T07:34:38.265Z,856
2018-12-18T07:35:48.391Z,860
2018-12-18T07:36:58.188Z,864
2018-12-18T07:38:10.160Z,860
2018-12-18T07:39:20.326Z,876
2018-12-18T07:40:30.399Z,908
2018-12-18T07:41:40.192Z,956
2018-12-18T07:42:50.241Z,1000
2018-12-18T07:43:59.788Z,1032
2018-12-18T07:45:09.852Z,1056
2018-12-18T07:46:19.646Z,1072
2018-12-18T07:47:29.446Z,1076
2018-12-18T07:48:39.518Z,1068
2018-12-18T07:49:49.315Z,1040
2018-12-18T07:50:59.443Z,1004
2018-12-18T07:52:09.505Z,980
2018-12-18T07:53:19.568Z,968
2018-12-18T07:54:29.875Z,964
2018-12-18T07:55:39.701Z,968
2018-12-18T07:56:49.821Z,980
2018-12-18T07:57:59.900Z,996
2018-12-18T07:59:09.974Z,1024
2018-12-18T08:00:20.051Z,1048
2018-12-18T08:01:30.133Z,1056
2018-12-18T08:02:40.247Z,1060
2018-12-18T08:03:50.048Z,1044
2018-12-18T08:04:59.858Z,1032
2018-12-18T08:06:10.119Z,1016
2018-12-18T08:07:20.205Z,1012
2018-12-18T08:08:30.367Z,1004
2018-12-18T08:09:40.731Z,988
2018-12-18T08:10:50.596Z,956
2018-12-18T08:12:02.473Z,924
2018-12-18T08:13:12.550Z,904
2018-12-18T08:14:22.415Z,884
2018-12-18T08:15:32.227Z,880
2018-12-18T08:16:42.302Z,880
2018-12-18T08:17:52.364Z,884
2018-12-18T08:19:02.450Z,892
2018-12-18T08:20:12.566Z,892
2018-12-18T08:21:22.644Z,888
2018-12-18T08:22:32.780Z,880
2018-12-18T08:23:42.841Z,876
2018-12-18T08:24:52.919Z,876
2018-12-18T08:26:03.058Z,880
2018-12-18T08:27:13.115Z,896
2018-12-18T08:28:23.226Z,920
2018-12-18T08:29:33.275Z,956
2018-12-18T08:30:43.336Z,988
2018-12-18T08:31:53.204Z,1004
2018-12-18T08:33:03.276Z,1008
2018-12-18T08:34:13.603Z,1020
2018-12-18T08:35:23.701Z,1044
2018-12-18T08:36:33.781Z,1084
2018-12-18T08:37:44.185Z,1120
2018-12-18T08:38:54.048Z,1132
2018-12-18T08:40:04.131Z,1096
2018-12-18T08:41:14.225Z,1020
2018-12-18T08:42:24.299Z,988
2018-12-18T08:43:34.362Z,984
2018-12-18T08:44:44.434Z,1004
2018-12-18T08:45:54.251Z,1028
2018-12-18T08:47:04.304Z,1052
2018-12-18T08:48:14.129Z,1088
2018-12-18T08:49:24.194Z,1196
2018-12-18T08:50:34.285Z,1336
2018-12-18T08:51:44.342Z,1448
2018-12-18T08:52:54.486Z,1508
2018-12-18T08:54:04.065Z,1548
2018-12-18T08:55:13.922Z,1588
2018-12-18T08:56:23.979Z,1636
2018-12-18T08:57:34.353Z,1688
2018-12-18T08:58:44.554Z,1728
2018-12-18T08:59:54.610Z,1760
2018-12-18T09:01:04.669Z,1792
2018-12-18T09:02:14.736Z,1824
2018-12-18T09:03:24.545Z,1848
2018-12-18T09:04:34.610Z,1868
2018-12-18T09:05:50.304Z,1884
2018-12-18T09:07:00.417Z,1908
2018-12-18T09:08:10.483Z,1928
2018-12-18T09:09:20.289Z,1940
2018-12-18T09:10:30.352Z,1952
2018-12-18T09:11:40.429Z,1956
2018-12-18T09:12:50.540Z,1960
2018-12-18T09:14:00.618Z,1968
2018-12-18T09:15:10.402Z,1968
2018-12-18T09:16:20.196Z,1976
2018-12-18T09:17:30.243Z,1980
2018-12-18T09:18:40.353Z,1980
2018-12-18T09:19:50.504Z,1988
2018-12-18T09:21:00.359Z,1996
2018-12-18T09:22:10.407Z,2016
2018-12-18T09:23:20.482Z,2056
2018-12-18T09:24:30.636Z,2084
2018-12-18T09:25:40.692Z,2092
2018-12-18T09:26:50.495Z,2096
2018-12-18T09:28:02.945Z,2088
2018-12-18T09:29:12.998Z,2084
2018-12-18T09:30:22.802Z,2088
2018-12-18T09:31:32.870Z,2108
2018-12-18T09:32:42.665Z,2112
2018-12-18T09:33:52.742Z,2120
2018-12-18T09:35:04.843Z,2124
2018-12-18T09:36:14.399Z,2128
2018-12-18T09:37:24.196Z,2140
2018-12-18T09:38:34.002Z,2152
2018-12-18T09:39:43.805Z,2168
2018-12-18T09:40:53.901Z,2172
2018-12-18T09:42:03.775Z,2184
2018-12-18T09:43:13.826Z,2192
2018-12-18T09:44:23.920Z,2184
2018-12-18T09:45:33.977Z,2188
2018-12-18T09:46:44.037Z,2180
2018-12-18T09:47:53.855Z,2168
2018-12-18T09:49:03.915Z,2148
2018-12-18T09:50:13.733Z,2140
2018-12-18T09:51:23.586Z,2132
2018-12-18T09:52:33.385Z,2132
2018-12-18T09:53:43.498Z,2140
2018-12-18T09:54:53.307Z,2164
2018-12-18T09:56:03.130Z,2200
2018-12-18T09:57:13.199Z,2240
2018-12-18T09:58:23.264Z,2268
2018-12-18T09:59:33.338Z,2288
2018-12-18T10:00:43.400Z,2304
2018-12-18T10:01:53.460Z,2308
2018-12-18T10:03:03.521Z,2300
2018-12-18T10:04:13.603Z,2296
2018-12-18T10:05:23.270Z,2296
2018-12-18T10:06:33.341Z,2288
2018-12-18T10:07:43.396Z,2276
2018-12-18T10:08:53.518Z,2272
2018-12-18T10:10:03.787Z,2292
2018-12-18T10:11:13.924Z,2308
2018-12-18T10:12:24.046Z,2332
2018-12-18T10:13:34.454Z,2360
2018-12-18T10:14:44.831Z,2388
2018-12-18T10:15:54.935Z,2408
2018-12-18T10:17:07.058Z,2412
2018-12-18T10:18:16.871Z,2400
2018-12-18T10:19:26.690Z,2376
2018-12-18T10:20:36.761Z,2360
2018-12-18T10:21:46.845Z,2348
2018-12-18T10:22:56.976Z,2340
2018-12-18T10:24:07.069Z,2340
2018-12-18T10:25:16.904Z,2364
2018-12-18T10:26:26.982Z,2388
2018-12-18T10:27:37.051Z,2424
2018-12-18T10:28:47.552Z,2456
2018-12-18T10:29:57.616Z,2484
2018-12-18T10:31:08.120Z,2500
2018-12-18T10:32:18.216Z,2516
2018-12-18T10:33:28.277Z,2516
2018-12-18T10:34:38.352Z,2508
2018-12-18T10:35:48.150Z,2496
2018-12-18T10:36:58.220Z,2488
2018-12-18T10:38:08.284Z,2472
2018-12-18T10:39:18.337Z,2456
2018-12-18T10:40:28.150Z,2448
2018-12-18T10:41:38.239Z,2432
2018-12-18T10:42:48.282Z,2424
2018-12-18T10:43:58.088Z,2424
2018-12-18T10:45:13.662Z,2424
2018-12-18T10:46:23.873Z,2428
2018-12-18T10:47:33.922Z,2440
2018-12-18T10:48:43.985Z,2448
2018-12-18T10:49:54.077Z,2464
2018-12-18T10:51:04.150Z,2480
2018-12-18T10:52:14.215Z,2500
2018-12-18T10:53:24.571Z,2512
2018-12-18T10:54:34.639Z,2512
2018-12-18T10:55:44.860Z,2512
2018-12-18T10:56:54.988Z,2524
2018-12-18T10:58:05.164Z,2552
2018-12-18T10:59:14.751Z,2588
2018-12-18T11:00:24.800Z,2620
2018-12-18T11:01:34.856Z,2644
2018-12-18T11:02:44.911Z,2660
2018-12-18T11:03:54.740Z,2676
2018-12-18T11:05:04.800Z,2684
2018-12-18T11:06:17.477Z,2692
2018-12-18T11:07:27.570Z,2704
2018-12-18T11:08:37.131Z,2712
2018-12-18T11:09:47.196Z,2728
2018-12-18T11:10:57.003Z,2744
2018-12-18T11:12:07.065Z,2776
2018-12-18T11:13:17.146Z,2820
2018-12-18T11:14:26.944Z,2872
2018-12-18T11:15:36.988Z,2920
2018-12-18T11:16:47.073Z,2960
2018-12-18T11:17:56.869Z,2992
2018-12-18T11:19:06.947Z,3004
2018-12-18T11:20:16.802Z,3016
2018-12-18T11:21:26.879Z,3032
2018-12-18T11:22:36.732Z,3036
2018-12-18T11:23:46.555Z,3084
2018-12-18T11:24:56.620Z,3116
2018-12-18T11:26:06.685Z,3168
2018-12-18T11:27:16.737Z,3252
2018-12-18T11:28:26.560Z,4796
2018-12-18T11:29:36.637Z,6044
2018-12-18T11:30:46.477Z,5936
2018-12-18T11:31:56.551Z,6440
2018-12-18T11:33:06.626Z,6468
2018-12-18T11:34:16.687Z,6200
2018-12-18T11:35:26.765Z,6428
2018-12-18T11:36:36.581Z,5880
2018-12-18T11:37:46.638Z,5960
2018-12-18T11:38:56.720Z,6280
2018-12-18T11:40:06.780Z,6320
2018-12-18T11:41:16.913Z,5868
2018-12-18T11:42:27.019Z,6308
2018-12-18T11:43:36.823Z,5696
2018-12-18T11:44:46.888Z,4460
2018-12-18T11:45:56.955Z,5020
2018-12-18T11:47:07.021Z,4332
2018-12-18T11:48:16.875Z,4708
2018-12-18T11:49:27.039Z,6284
2018-12-18T11:50:37.043Z,6292
2018-12-18T11:51:46.870Z,6372
2018-12-18T11:52:56.949Z,6152
2018-12-18T11:54:06.883Z,6308
2018-12-18T11:55:17.055Z,5404
2018-12-18T11:56:26.870Z,4688
2018-12-18T11:57:36.912Z,4156
2018-12-18T11:58:46.966Z,4804
2018-12-18T11:59:56.797Z,5188
2018-12-18T12:01:06.886Z,6148
2018-12-18T12:02:16.959Z,6084
2018-12-18T12:03:26.803Z,6016
2018-12-18T12:04:36.856Z,5996
2018-12-18T12:05:46.723Z,5888
2018-12-18T12:06:56.795Z,5772
2018-12-18T12:08:06.846Z,5668
2018-12-18T12:09:16.660Z,5520
2018-12-18T12:10:26.487Z,5424
2018-12-18T12:11:36.495Z,5388
2018-12-18T12:12:48.115Z,5184
2018-12-18T12:13:58.174Z,5052
2018-12-18T12:15:08.241Z,4904
2018-12-18T12:16:18.059Z,4784
2018-12-18T12:17:27.602Z,5688
2018-12-18T12:18:37.420Z,7752
2018-12-18T12:19:47.243Z,8848
2018-12-18T12:20:57.541Z,8000
2018-12-18T12:22:07.604Z,7680
2018-12-18T12:23:18.974Z,6848
2018-12-18T12:24:29.158Z,6492
2018-12-18T12:25:39.257Z,5812
2018-12-18T12:26:49.430Z,4996
2018-12-18T12:27:58.986Z,4464
2018-12-18T12:29:11.066Z,4408
2018-12-18T12:30:21.145Z,4440
2018-12-18T12:31:30.968Z,4376
2018-12-18T12:32:41.059Z,4208
2018-12-18T12:33:51.107Z,4156
2018-12-18T12:35:02.993Z,3784
2018-12-18T12:36:12.798Z,3712
2018-12-18T12:37:22.852Z,3756
2018-12-18T12:38:32.930Z,3868
2018-12-18T12:39:42.748Z,3692
2018-12-18T12:40:52.824Z,3352
2018-12-18T12:42:04.638Z,3652
2018-12-18T12:43:14.752Z,3308
2018-12-18T12:44:24.826Z,2928
2018-12-18T12:45:34.903Z,3156
2018-12-18T12:46:44.991Z,3884
2018-12-18T12:47:55.077Z,3784
2018-12-18T12:49:07.787Z,3624
2018-12-18T12:50:17.351Z,3504
2018-12-18T12:51:27.211Z,3668
2018-12-18T12:52:37.496Z,3360
2018-12-18T12:53:47.601Z,3100
2018-12-18T12:54:57.684Z,3536
2018-12-18T12:56:09.413Z,3392
2018-12-18T12:57:19.469Z,2880
2018-12-18T12:58:29.273Z,3476
2018-12-18T12:59:39.543Z,2624
2018-12-18T13:00:49.623Z,3168
2018-12-18T13:01:59.460Z,3132
2018-12-18T13:03:09.546Z,3236
2018-12-18T13:04:19.629Z,3160
2018-12-18T13:05:29.706Z,3180
2018-12-18T13:06:43.519Z,3176
2018-12-18T13:07:53.694Z,3088
2018-12-18T13:09:04.004Z,3016
2018-12-18T13:10:14.339Z,3036
2018-12-18T13:11:24.404Z,2992
2018-12-18T13:12:34.465Z,2984
2018-12-18T13:13:44.527Z,2992
2018-12-18T13:14:54.589Z,2944
2018-12-18T13:16:04.675Z,2924
2018-12-18T13:17:14.999Z,2880
2018-12-18T13:18:25.097Z,2888
2018-12-18T13:19:35.417Z,2840
2018-12-18T13:20:45.237Z,2784
2018-12-18T13:21:55.319Z,2740
2018-12-18T13:23:05.411Z,2704
2018-12-18T13:24:15.499Z,2660
2018-12-18T13:25:25.643Z,2616
2018-12-18T13:26:35.713Z,2568
2018-12-18T13:27:45.784Z,2520
2018-12-18T13:28:55.843Z,2476
2018-12-18T13:30:05.922Z,2448
2018-12-18T13:31:15.770Z,2440
2018-12-18T13:32:25.840Z,2404
2018-12-18T13:33:35.912Z,2380
2018-12-18T13:34:45.731Z,2364
2018-12-18T13:35:55.803Z,2336
2018-12-18T13:37:06.369Z,2312
2018-12-18T13:38:16.463Z,2272
2018-12-18T13:39:26.283Z,2240
2018-12-18T13:40:37.183Z,2192
2018-12-18T13:41:47.254Z,2152
2018-12-18T13:42:57.381Z,2108
2018-12-18T13:44:07.570Z,2060
2018-12-18T13:45:17.385Z,2008
2018-12-18T13:46:27.437Z,1968
2018-12-18T13:47:37.542Z,1916
2018-12-18T13:48:47.622Z,1868
2018-12-18T13:49:57.755Z,1852
2018-12-18T13:51:07.872Z,1820
2018-12-18T13:52:17.950Z,1716
2018-12-18T13:53:28.323Z,1348
2018-12-18T13:54:38.391Z,1716
2018-12-18T13:55:48.454Z,1688
2018-12-18T13:56:58.517Z,1664
2018-12-18T13:58:08.597Z,1624
2018-12-18T13:59:18.655Z,1580
2018-12-18T14:00:28.547Z,1536
2018-12-18T14:01:38.131Z,1492
2018-12-18T14:02:48.220Z,1428
2018-12-18T14:03:58.352Z,1372
2018-12-18T14:05:07.899Z,1320
2018-12-18T14:06:17.959Z,1288
2018-12-18T14:07:27.787Z,1248
2018-12-18T14:08:37.903Z,1212
2018-12-18T14:09:47.704Z,1176
2018-12-18T14:10:57.512Z,1140
2018-12-18T14:12:09.593Z,1104
2018-12-18T14:13:19.652Z,1068
2018-12-18T14:14:29.734Z,1032
2018-12-18T14:15:40.003Z,992
2018-12-18T14:16:50.075Z,948
2018-12-18T14:18:02.642Z,904
2018-12-18T14:19:12.441Z,848
2018-12-18T14:20:22.507Z,800
2018-12-18T14:21:32.562Z,768
2018-12-18T14:22:42.721Z,752
2018-12-18T14:23:52.786Z,740
2018-12-18T14:25:03.379Z,704
2018-12-18T14:26:13.547Z,668
2018-12-18T14:27:23.689Z,632
2018-12-18T14:28:33.742Z,604
2018-12-18T14:29:43.794Z,572
2018-12-18T14:30:53.385Z,536
2018-12-18T14:32:03.239Z,504
2018-12-18T14:33:13.302Z,480
2018-12-18T14:34:22.864Z,448
2018-12-18T14:35:32.696Z,416
2018-12-18T14:36:43.159Z,392
2018-12-18T14:37:53.052Z,368
2018-12-18T14:39:06.910Z,348
2018-12-18T14:40:16.717Z,328
2018-12-18T14:41:26.758Z,312
2018-12-18T14:42:36.566Z,288
2018-12-18T14:43:46.660Z,268
2018-12-18T14:44:56.769Z,252
2018-12-18T14:46:06.831Z,236
2018-12-18T14:47:16.631Z,224
2018-12-18T14:48:26.699Z,216
2018-12-18T14:49:36.502Z,204
2018-12-18T14:50:46.561Z,196
2018-12-18T14:51:56.612Z,184
2018-12-18T14:53:06.690Z,176
2018-12-18T14:54:16.756Z,164
2018-12-18T14:55:26.825Z,156
2018-12-18T14:56:36.963Z,144
2018-12-18T14:57:47.070Z,136
2018-12-18T14:58:57.159Z,124
2018-12-18T15:00:07.246Z,116
2018-12-18T15:01:17.331Z,104
2018-12-18T15:02:27.391Z,96
2018-12-18T15:03:37.240Z,88
2018-12-18T15:04:47.294Z,76
2018-12-18T15:05:57.376Z,68
2018-12-18T15:07:10.321Z,60
2018-12-18T15:08:20.404Z,48
2018-12-18T15:09:30.470Z,44
2018-12-18T15:10:40.547Z,36
2018-12-18T15:11:50.619Z,32
2018-12-18T15:13:00.719Z,28
2018-12-18T15:14:11.028Z,24
2018-12-18T15:15:21.125Z,20
2018-12-18T15:16:31.204Z,16
2018-12-18T15:17:41.279Z,16
2018-12-18T15:18:51.356Z,12
2018-12-18T15:20:01.457Z,8
2018-12-18T15:21:11.553Z,8
2018-12-18T15:22:21.638Z,8
2018-12-18T15:23:31.713Z,8
2018-12-18T15:24:41.804Z,4
2018-12-18T15:25:51.598Z,0
2018-12-18T15:27:01.655Z,4
2018-12-18T15:28:11.723Z,4
2018-12-18T15:29:21.301Z,0
2018-12-18T15:30:33.424Z,4
2018-12-18T15:31:43.489Z,4
2018-12-18T15:32:53.579Z,0
2018-12-18T15:34:03.690Z,0
2018-12-18T15:35:13.750Z,0
2018-12-18T15:36:23.855Z,0
2018-12-18T15:37:33.935Z,0
2018-12-18T15:38:43.748Z,0
2018-12-18T15:39:53.817Z,0
2018-12-18T15:41:03.945Z,0
2018-12-18T15:42:13.995Z,0
2018-12-18T15:43:24.075Z,0
2018-12-18T15:44:34.147Z,0
2018-12-18T15:45:43.963Z,0
2018-12-18T15:46:54.035Z,0
2018-12-18T15:48:04.216Z,0
2018-12-18T15:49:14.272Z,0
2018-12-18T15:50:24.366Z,0
2018-12-18T15:51:34.857Z,0
2018-12-18T15:52:44.930Z,0
2018-12-18T15:53:54.800Z,0
2018-12-18T15:55:05.122Z,0
2018-12-18T15:56:14.949Z,0
2018-12-18T15:57:25.225Z,0
2018-12-18T15:58:36.494Z,0
2018-12-18T15:59:46.296Z,0
2018-12-18T16:00:56.123Z,0
2018-12-18T16:02:06.230Z,0
2018-12-18T16:03:17.088Z,0
2018-12-18T16:04:27.218Z,0
2018-12-18T16:05:37.286Z,0
2018-12-18T16:06:47.561Z,0
2018-12-18T16:07:57.636Z,0
2018-12-18T16:09:09.892Z,0
2018-12-18T16:10:19.716Z,0
2018-12-18T16:11:30.009Z,0
2018-12-18T16:12:39.844Z,0
2018-12-18T16:13:49.925Z,0
2018-12-18T16:15:00.034Z,0
2018-12-18T16:16:10.192Z,0
2018-12-18T16:17:20.146Z,0
2018-12-18T16:18:30.226Z,0
2018-12-18T16:19:40.034Z,0
2018-12-18T16:20:50.113Z,0
2018-12-18T16:22:02.212Z,0
2018-12-18T16:23:12.320Z,0
2018-12-18T16:24:23.851Z,0
2018-12-18T16:25:33.761Z,0
2018-12-18T16:26:43.851Z,0
2018-12-18T16:27:53.949Z,0
2018-12-18T16:29:04.044Z,0
2018-12-18T16:30:13.897Z,0
2018-12-18T16:31:23.970Z,0
2018-12-18T16:32:34.087Z,0
2018-12-18T16:33:44.170Z,0
2018-12-18T16:34:54.007Z,0
2018-12-18T16:36:04.064Z,0
2018-12-18T16:37:13.899Z,0
2018-12-18T16:38:30.606Z,0
2018-12-18T16:39:40.662Z,0
2018-12-18T16:40:50.750Z,0
2018-12-18T16:42:00.568Z,0
2018-12-18T16:43:10.652Z,0
2018-12-18T16:44:20.714Z,0
2018-12-18T16:45:30.826Z,0
2018-12-18T16:46:40.882Z,0
2018-12-18T16:47:50.956Z,0
2018-12-18T16:49:00.759Z,0
2018-12-18T16:50:10.843Z,0
2018-12-18T16:51:20.909Z,0
2018-12-18T16:52:31.019Z,0
2018-12-18T16:53:41.094Z,0
2018-12-18T16:54:51.181Z,0
2018-12-18T16:56:01.246Z,0
2018-12-18T16:57:17.978Z,0